Bei Facebook empfehlenBei Twitter postenGoogle plusPinterest

Das Wetter im Erzgebirge am 07.08.2015

Wetter und Klima am 07.08.2015 Holzhau im Erzgebirge (630m ü.NN)
Letzte gemessene Temperatur und Uhrzeit der Messung23:45:00 Uhr19.60 °C
Temperatur (Maximum / Höchstwert) und Uhrzeit der Messung17:30:00 Uhr35.10 °C
Temperatur (Minimum / Tiefstwert) und Uhrzeit der Messung02:30:0016.00 °C
Errechneter Absolutwert der Temperaturschwankungen zwischen Tmin und Tmax des Tages19.10 K
Errechnete Tagesmitteltemperatur25.65417 °C
Gesamt - Niederschlag des Tages (in flüssiger Form)0.00 Liter / m²
Luftdruck (Maximum / Höchstwert) und Zeitpunkt der Messung14:15:00 Uhr1018.30 hPa
Luftdruck (Minimum / Tiefstwert) und Zeitpunkt der Messung05:00:00 Uhr1017.20 hPa
Errechneter Absolutwert der Luftdruckschwankungen des Tages1.10 hPa
Höchste gemessene Windgeschwindigkeit und Uhrzeit der Messung23:45:00 Uhr0.00 km/h
Errechnete Windhäufigkeit in Relation zu den Messwerten des Tages0.00000 %
Niedrigste Windkühle (Windchill) und Zeitpunkt der Messung02:30:00 Uhr16.00 °C
Taupunkt (Maximum / Höchstwert) und Uhrzeit der Messung09:15:00 Uhr17.40 °C
Taupunkt (Minimum / Tiefstwert) und Uhrzeit der Messung02:30:0011.80 °C
Anzahl der automatisch eingelesenen Messwerte 96

Detaillierte Wetter- und Klima- Messwerte für den 07.08.2015 in Holzhau im Erzgebirge (630m ü.NN)
ZeitTemperaturLuftdruckRel. LuftfeuchteWindWindrichtungWindchillTaupunktNiederschlag l/m²
23:45:0019.60 °C1018.00 hPa64.00 %12.60 °C 
23:30:0019.80 °C1017.90 hPa64.00 %12.80 °C 
23:15:0019.90 °C1017.80 hPa63.00 %12.70 °C 
23:00:0020.10 °C1017.90 hPa63.00 %12.80 °C 
22:45:0020.40 °C1017.70 hPa62.00 %12.90 °C 
22:30:0020.70 °C1017.90 hPa60.00 %12.70 °C 
22:15:0021.00 °C1017.70 hPa60.00 %12.90 °C 
22:00:0021.30 °C1017.80 hPa59.00 %13.00 °C 
21:45:0021.60 °C1017.90 hPa57.00 %12.70 °C 
21:30:0021.90 °C1017.80 hPa56.00 %12.70 °C 
21:15:0022.30 °C1017.60 hPa54.00 %12.50 °C 
21:00:0023.10 °C1017.60 hPa51.00 %12.40 °C 
20:45:0024.40 °C1017.60 hPa48.00 %12.70 °C 
20:30:0026.10 °C1017.40 hPa45.00 %13.20 °C 
20:15:0027.90 °C1017.50 hPa41.00 %13.40 °C 
20:00:0029.50 °C1017.50 hPa38.00 %13.70 °C 
19:45:0030.90 °C1017.50 hPa36.00 %14.10 °C 
19:30:0032.10 °C1017.60 hPa32.00 %13.30 °C 
19:15:0032.60 °C1017.50 hPa31.00 %13.30 °C 
19:00:0033.10 °C1017.60 hPa30.00 %13.20 °C 
18:45:0033.60 °C1017.80 hPa28.00 %12.60 °C 
18:30:0033.90 °C1018.00 hPa28.00 %12.80 °C 
18:15:0034.30 °C1018.00 hPa28.00 %13.20 °C 
18:00:0034.50 °C1018.10 hPa28.00 %13.30 °C 
17:45:0034.90 °C1018.10 hPa25.00 %11.90 °C 
17:30:0035.10 °C1018.10 hPa26.00 %12.70 °C 
17:15:0034.90 °C1018.10 hPa25.00 %11.90 °C 
17:00:0034.60 °C1018.10 hPa26.00 %12.30 °C 
16:45:0034.40 °C1018.20 hPa26.00 %12.10 °C 
16:30:0034.40 °C1018.20 hPa27.00 %12.70 °C 
16:15:0034.60 °C1018.20 hPa28.00 %13.40 °C 
16:00:0034.80 °C1018.20 hPa28.00 %13.60 °C 
15:45:0034.80 °C1018.20 hPa29.00 %14.10 °C 
15:30:0034.90 °C1018.10 hPa30.00 %14.70 °C 
15:15:0034.90 °C1018.10 hPa30.00 %14.70 °C 
15:00:0034.70 °C1018.10 hPa30.00 %14.60 °C 
14:45:0034.50 °C1018.10 hPa31.00 %14.90 °C 
14:30:0033.90 °C1018.10 hPa31.00 %14.40 °C 
14:15:0033.80 °C1018.30 hPa32.00 %14.80 °C 
14:00:0033.60 °C1018.30 hPa32.00 %14.60 °C 
13:45:0033.60 °C1018.20 hPa31.00 %14.10 °C 
13:30:0033.60 °C1018.30 hPa31.00 %14.10 °C 
13:15:0033.50 °C1018.20 hPa32.00 %14.50 °C 
13:00:0033.20 °C1018.10 hPa33.00 %14.80 °C 
12:45:0033.00 °C1017.90 hPa33.00 %14.60 °C 
12:30:0032.80 °C1018.20 hPa35.00 %15.30 °C 
12:15:0032.80 °C1018.10 hPa34.00 %14.90 °C 
12:00:0032.60 °C1018.00 hPa34.00 %14.70 °C 
11:45:0032.40 °C1018.10 hPa35.00 %15.00 °C 
11:30:0032.30 °C1018.10 hPa35.00 %14.90 °C 
11:15:0032.30 °C1018.10 hPa36.00 %15.30 °C 
11:00:0032.10 °C1018.20 hPa37.00 %15.60 °C 
10:45:0031.90 °C1018.00 hPa39.00 %16.20 °C 
10:30:0031.50 °C1018.10 hPa38.00 %15.50 °C 
10:15:0030.80 °C1018.00 hPa41.00 %16.00 °C 
10:00:0030.50 °C1018.00 hPa42.00 %16.10 °C 
09:45:0030.20 °C1017.90 hPa44.00 %16.60 °C 
09:30:0029.50 °C1017.80 hPa46.00 %16.70 °C 
09:15:0028.90 °C1017.90 hPa50.00 %17.40 °C 
09:00:0027.90 °C1017.70 hPa51.00 %16.80 °C 
08:45:0026.90 °C1017.80 hPa54.00 %16.80 °C 
08:30:0025.80 °C1017.70 hPa58.00 %16.90 °C 
08:15:0025.30 °C1017.60 hPa59.00 %16.70 °C 
08:00:0024.40 °C1017.50 hPa60.00 %16.10 °C 
07:45:0023.10 °C1017.40 hPa64.00 %15.90 °C 
07:30:0020.80 °C1017.50 hPa69.00 %14.90 °C 
07:15:0018.90 °C1017.50 hPa72.00 %13.70 °C 
07:00:0018.20 °C1017.50 hPa73.00 %13.30 °C 
06:45:0017.60 °C1017.50 hPa74.00 %12.90 °C 
06:30:0017.20 °C1017.50 hPa75.00 %12.70 °C 
06:15:0017.30 °C1017.40 hPa75.00 %12.80 °C 
06:00:0016.80 °C1017.50 hPa76.00 %12.50 °C 
05:45:0016.30 °C1017.40 hPa77.00 %12.30 °C 
05:30:0016.30 °C1017.30 hPa76.00 %12.10 °C 
05:15:0016.20 °C1017.30 hPa76.00 %12.00 °C 
05:00:0016.20 °C1017.20 hPa76.00 %12.00 °C 
04:45:0016.10 °C1017.20 hPa76.00 %11.90 °C 
04:30:0016.20 °C1017.30 hPa76.00 %12.00 °C 
04:15:0016.30 °C1017.20 hPa76.00 %12.10 °C 
04:00:0016.20 °C1017.40 hPa76.00 %12.00 °C 
03:45:0016.10 °C1017.40 hPa76.00 %11.90 °C 
03:30:0016.30 °C1017.60 hPa76.00 %12.10 °C 
03:15:0016.10 °C1017.50 hPa76.00 %11.90 °C 
03:00:0016.20 °C1017.70 hPa76.00 %12.00 °C 
02:45:0016.20 °C1017.70 hPa76.00 %12.00 °C 
02:30:0016.00 °C1017.80 hPa76.00 %11.80 °C 
02:15:0016.10 °C1017.80 hPa76.00 %11.90 °C 
02:00:0016.20 °C1017.80 hPa75.00 %11.80 °C 
01:45:0016.40 °C1017.80 hPa75.00 %12.00 °C 
01:30:0016.60 °C1018.00 hPa74.00 %12.00 °C 
01:15:0016.90 °C1017.90 hPa74.00 %12.20 °C 
01:00:0017.10 °C1017.90 hPa73.00 %12.20 °C 
00:45:0017.60 °C1017.90 hPa73.00 %12.70 °C 
00:30:0017.80 °C1018.10 hPa72.00 %12.70 °C 
00:15:0018.10 °C1018.00 hPa71.00 %12.80 °C 
00:00:0018.20 °C1018.00 hPa71.00 %12.90 °C 

Permanenter Link zu dieser Seite: Wetter im Erzgebirge am 07.08.2015
Performance-Info: Die Erstellung der Seite / Statistik(en) / Tabelle(n) erforderte 5 Datenbankserver-Abfrage(n) und dauerte 100 Millisekunden. (Dieser Messwert ist von der Gesamt-Auslastung des Servers abhängig.)
Erzgebirge - Wetter | Erzgebirge - Wetter (Mobilgeräte) | Komplette Klimadatenbank